Time;durP1;ratioP1;P1;durP2;ratioP2;P2;SDS_P1;SDS_P2;PMS_P1;PMS_P2;Temp;Humidity;BMP_temperature;BMP_pressure;BME280_temperature;BME280_humidity;BME280_pressure;Samples;Min_cycle;Max_cycle;Signal;HPM_P1;HPM_P2
2021/07/11 00:00:47;;;;;;;11.63;6.43;;;17.70;93.40;;;;;;5028945;28;20249;-73
2021/07/11 00:03:13;;;;;;;8.57;6.73;;;17.60;93.20;;;;;;5029208;28;20190;-74
2021/07/11 00:05:38;;;;;;;10.57;6.03;;;17.60;93.20;;;;;;5029274;28;20599;-75
2021/07/11 00:08:04;;;;;;;11.00;6.40;;;17.60;93.30;;;;;;5030204;28;20654;-75
2021/07/11 00:10:30;;;;;;;9.50;6.20;;;17.60;93.30;;;;;;5029998;28;20182;-75
2021/07/11 00:12:56;;;;;;;7.43;5.80;;;17.60;93.20;;;;;;5034418;28;20441;-75
2021/07/11 00:15:24;;;;;;;11.50;6.80;;;17.60;93.20;;;;;;5047202;28;20265;-73
2021/07/11 00:17:51;;;;;;;9.20;6.90;;;17.60;93.20;;;;;;5053742;28;20186;-74
2021/07/11 00:20:17;;;;;;;7.93;6.07;;;17.60;93.20;;;;;;5027192;28;20495;-75
2021/07/11 00:22:43;;;;;;;8.40;6.93;;;17.60;93.10;;;;;;5016227;28;20552;-74
2021/07/11 00:25:11;;;;;;;10.20;6.87;;;17.60;93.30;;;;;;5018541;28;20421;-75
2021/07/11 00:27:37;;;;;;;9.30;6.90;;;17.60;93.30;;;;;;5014022;28;20500;-75
2021/07/11 00:30:04;;;;;;;7.60;5.93;;;17.60;93.30;;;;;;5013973;28;20456;-74
2021/07/11 00:32:29;;;;;;;8.87;6.20;;;17.60;93.30;;;;;;5013769;28;20187;-75
2021/07/11 00:34:55;;;;;;;8.53;6.50;;;17.60;93.30;;;;;;5013992;28;20440;-74
2021/07/11 00:37:21;;;;;;;6.33;5.70;;;17.50;93.10;;;;;;5014165;28;20183;-74
2021/07/11 00:39:47;;;;;;;7.73;6.17;;;17.50;93.10;;;;;;5013399;28;20174;-74
2021/07/11 00:42:15;;;;;;;11.00;7.07;;;17.50;93.20;;;;;;5012406;28;20453;-75
2021/07/11 00:44:42;;;;;;;12.63;7.93;;;17.50;93.20;;;;;;5013843;28;20412;-74
2021/07/11 00:47:11;;;;;;;11.93;7.93;;;17.50;93.20;;;;;;5012499;28;20505;-74
2021/07/11 00:49:44;;;;;;;12.60;8.40;;;17.40;93.10;;;;;;5025385;28;20409;-74
2021/07/11 00:52:12;;;;;;;15.10;8.40;;;17.40;93.20;;;;;;5033241;28;20862;-75
2021/07/11 00:54:38;;;;;;;13.17;8.27;;;17.40;93.40;;;;;;5014833;28;20409;-74
2021/07/11 00:57:07;;;;;;;15.53;9.40;;;17.40;93.50;;;;;;5012318;28;20493;-74
2021/07/11 00:59:40;;;;;;;11.33;8.93;;;17.40;93.60;;;;;;5015606;28;20497;-73
2021/07/11 01:02:20;;;;;;;15.33;9.57;;;17.40;93.60;;;;;;5015429;28;20449;-74
2021/07/11 01:04:52;;;;;;;17.63;9.10;;;17.50;93.70;;;;;;5022345;23;21032;-76
2021/07/11 01:07:26;;;;;;;12.10;9.23;;;17.50;93.60;;;;;;4981600;28;20422;-75
2021/07/11 01:09:56;;;;;;;13.57;8.40;;;17.50;93.50;;;;;;4997771;28;20408;-76
2021/07/11 01:12:25;;;;;;;11.40;8.07;;;17.50;93.40;;;;;;5014388;28;20417;-76
2021/07/11 01:14:53;;;;;;;9.20;6.97;;;17.50;93.40;;;;;;4998636;28;20431;-75
2021/07/11 01:17:25;;;;;;;13.17;7.80;;;17.40;93.40;;;;;;4977183;28;20499;-76
2021/07/11 01:20:14;;;;;;;10.10;7.80;;;17.40;93.50;;;;;;4977070;28;20415;-75
2021/07/11 01:22:49;;;;;;;9.87;7.00;;;17.40;93.50;;;;;;4980578;28;20445;-75
2021/07/11 01:25:33;;;;;;;8.27;6.30;;;17.40;93.70;;;;;;4980335;28;20425;-75
2021/07/11 01:28:03;;;;;;;12.23;7.53;;;17.40;93.70;;;;;;5014231;28;20418;-75
2021/07/11 01:30:29;;;;;;;13.67;7.20;;;17.30;93.90;;;;;;4978334;28;20465;-75
2021/07/11 01:32:56;;;;;;;11.70;6.30;;;17.30;94.00;;;;;;4994260;28;20466;-75
2021/07/11 01:35:23;;;;;;;9.60;6.10;;;17.40;94.20;;;;;;4987665;28;20410;-75
2021/07/11 01:37:51;;;;;;;10.43;6.57;;;17.40;94.20;;;;;;4996746;28;20831;-75
2021/07/11 01:40:20;;;;;;;11.00;6.40;;;17.40;94.20;;;;;;4996552;28;20429;-76
2021/07/11 01:42:49;;;;;;;9.10;6.50;;;17.50;94.20;;;;;;5013392;28;20480;-76
2021/07/11 01:45:14;;;;;;;11.00;7.40;;;17.50;94.20;;;;;;5012436;28;20418;-76
2021/07/11 01:47:42;;;;;;;8.40;6.50;;;17.50;94.20;;;;;;4980247;28;20450;-74
2021/07/11 01:50:11;;;;;;;12.67;7.80;;;17.50;94.10;;;;;;4995502;28;21084;-75
2021/07/11 01:52:38;;;;;;;14.60;7.93;;;17.50;94.10;;;;;;5013636;28;20418;-75
2021/07/11 01:55:07;;;;;;;10.17;7.80;;;17.40;93.90;;;;;;4996215;28;20441;-75
2021/07/11 01:57:34;;;;;;;12.10;7.83;;;17.40;94.50;;;;;;5013458;28;20524;-75
2021/07/11 02:00:00;;;;;;;13.23;9.03;;;17.30;94.30;;;;;;4981645;28;20431;-74
2021/07/11 02:02:43;;;;;;;12.20;9.20;;;17.30;94.50;;;;;;4994003;28;20457;-75
2021/07/11 02:05:18;;;;;;;11.57;8.13;;;17.30;94.60;;;;;;4976580;28;20421;-75
2021/07/11 02:07:44;;;;;;;10.73;8.90;;;17.40;94.60;;;;;;4977028;28;20413;-76
2021/07/11 02:10:13;;;;;;;16.03;10.83;;;17.30;94.40;;;;;;4977175;28;20839;-75
2021/07/11 02:13:07;;;;;;;14.57;10.87;;;17.30;94.50;;;;;;4980677;28;20410;-75
2021/07/11 02:15:37;;;;;;;13.83;10.33;;;17.30;94.50;;;;;;4996023;28;20406;-75
2021/07/11 02:18:07;;;;;;;17.00;11.53;;;17.30;94.70;;;;;;4995342;28;20453;-75
2021/07/11 02:20:48;;;;;;;17.50;11.07;;;17.20;94.50;;;;;;4971901;28;20407;-75
2021/07/11 02:23:18;;;;;;;15.80;11.37;;;17.20;94.60;;;;;;4965944;28;20810;-75
2021/07/11 02:25:48;;;;;;;17.00;10.70;;;17.10;94.70;;;;;;4976090;28;20446;-74
2021/07/11 02:28:15;;;;;;;17.10;12.73;;;17.10;94.90;;;;;;4987385;28;20411;-75
2021/07/11 02:30:51;;;;;;;16.70;10.90;;;17.10;95.10;;;;;;4975883;28;20422;-74
2021/07/11 02:33:18;;;;;;;14.37;9.93;;;17.20;95.10;;;;;;4992858;28;20433;-74
2021/07/11 02:35:47;;;;;;;16.60;12.60;;;17.20;95.00;;;;;;4997148;28;20413;-74
2021/07/11 02:38:16;;;;;;;28.47;12.40;;;17.20;95.00;;;;;;5012800;28;20468;-75
2021/07/11 02:40:43;;;;;;;18.10;12.30;;;17.20;95.00;;;;;;4994899;28;20550;-75
2021/07/11 02:43:12;;;;;;;17.70;11.70;;;17.20;95.00;;;;;;4994874;28;20489;-75
2021/07/11 02:45:43;;;;;;;19.17;13.40;;;17.20;95.00;;;;;;4978985;28;20428;-75
2021/07/11 02:48:10;;;;;;;25.03;12.90;;;17.20;95.00;;;;;;5012351;28;20413;-75
2021/07/11 02:50:44;;;;;;;23.00;14.70;;;17.20;95.00;;;;;;5011815;28;20916;-75
2021/07/11 02:53:15;;;;;;;20.70;13.30;;;17.20;94.90;;;;;;4995089;28;20525;-75
2021/07/11 02:55:42;;;;;;;20.50;14.10;;;17.20;94.90;;;;;;4987908;28;20434;-74
2021/07/11 02:58:13;;;;;;;22.70;13.93;;;17.20;94.70;;;;;;4992741;28;20414;-75
2021/07/11 03:00:42;;;;;;;24.17;15.40;;;17.20;94.70;;;;;;4992889;28;20403;-75
2021/07/11 03:03:11;;;;;;;27.83;16.47;;;17.10;94.80;;;;;;4992657;28;20461;-75
2021/07/11 03:05:47;;;;;;;23.00;15.73;;;17.20;94.80;;;;;;4975265;28;20908;-75
2021/07/11 03:08:13;;;;;;;23.77;14.57;;;17.10;94.90;;;;;;4993790;28;20413;-75
2021/07/11 03:10:41;;;;;;;24.63;15.47;;;17.10;94.90;;;;;;4994449;28;20592;-75
2021/07/11 03:13:09;;;;;;;24.40;15.80;;;17.10;95.00;;;;;;4994656;28;20438;-75
2021/07/11 03:15:41;;;;;;;22.93;15.30;;;17.10;95.00;;;;;;5012473;28;20493;-75
2021/07/11 03:18:10;;;;;;;20.17;13.47;;;17.20;94.90;;;;;;4994647;28;20425;-75
2021/07/11 03:20:37;;;;;;;28.50;16.90;;;17.20;94.90;;;;;;4994677;28;20425;-75
2021/07/11 03:23:04;;;;;;;26.30;17.03;;;17.20;95.00;;;;;;4996903;28;20451;-75
2021/07/11 03:25:31;;;;;;;28.00;17.03;;;17.20;94.90;;;;;;4993174;28;20442;-75
2021/07/11 03:28:05;;;;;;;22.13;15.63;;;17.20;94.80;;;;;;5000637;28;20954;-75
2021/07/11 03:30:36;;;;;;;29.83;17.40;;;17.10;94.80;;;;;;4994074;28;20520;-75
2021/07/11 03:33:04;;;;;;;32.33;17.57;;;17.10;95.00;;;;;;4977386;28;21041;-75
2021/07/11 03:35:42;;;;;;;21.87;14.37;;;17.20;95.30;;;;;;4994327;28;20471;-75
2021/07/11 03:38:14;;;;;;;23.60;16.70;;;17.20;94.90;;;;;;4977578;28;20586;-75
2021/07/11 03:40:43;;;;;;;29.23;17.60;;;17.10;94.80;;;;;;4974739;28;20418;-75
2021/07/11 03:43:13;;;;;;;24.10;14.80;;;17.10;94.90;;;;;;4975058;28;20516;-75
2021/07/11 03:45:43;;;;;;;28.30;17.30;;;17.10;95.00;;;;;;4974478;28;20415;-76
2021/07/11 03:48:15;;;;;;;24.40;15.80;;;17.10;95.10;;;;;;4992736;28;20900;-75
2021/07/11 03:50:44;;;;;;;21.80;14.50;;;17.10;95.00;;;;;;4972705;28;20989;-75
2021/07/11 03:53:11;;;;;;;25.03;15.67;;;17.20;94.90;;;;;;4954726;28;20451;-76
2021/07/11 03:55:38;;;;;;;27.93;15.53;;;17.20;94.80;;;;;;4987855;28;20927;-76
2021/07/11 03:58:06;;;;;;;23.37;14.60;;;17.20;94.80;;;;;;4993548;28;20476;-73
2021/07/11 04:00:32;;;;;;;23.13;13.70;;;17.20;94.90;;;;;;5011062;28;20413;-76
2021/07/11 04:03:01;;;;;;;21.10;13.77;;;17.20;94.90;;;;;;4998324;28;20477;-76
2021/07/11 04:05:29;;;;;;;23.10;14.77;;;17.20;94.90;;;;;;4991731;28;20203;-75
2021/07/11 04:07:57;;;;;;;18.87;13.73;;;17.20;94.80;;;;;;4992144;28;20441;-76
2021/07/11 04:10:25;;;;;;;25.67;14.90;;;17.20;94.90;;;;;;4991555;28;20411;-75
2021/07/11 04:12:52;;;;;;;26.53;15.60;;;17.20;94.90;;;;;;4991509;28;20774;-74
2021/07/11 04:15:18;;;;;;;22.63;14.80;;;17.20;94.90;;;;;;4976552;28;20485;-75
2021/07/11 04:17:53;;;;;;;24.37;15.43;;;17.20;94.90;;;;;;4981279;28;20932;-75
2021/07/11 04:20:20;;;;;;;19.87;14.23;;;17.30;94.90;;;;;;4977916;28;20179;-75
2021/07/11 04:22:48;;;;;;;26.47;16.63;;;17.30;94.80;;;;;;5012227;28;20507;-76
2021/07/11 04:25:15;;;;;;;19.80;13.97;;;17.20;94.80;;;;;;5012609;28;20421;-75
2021/07/11 04:27:42;;;;;;;20.63;13.63;;;17.20;94.80;;;;;;4996691;28;20899;-75
2021/07/11 04:30:09;;;;;;;18.47;13.10;;;17.20;94.80;;;;;;5018932;28;20417;-76
2021/07/11 04:32:36;;;;;;;21.33;13.07;;;17.20;94.90;;;;;;5011258;28;20459;-75
2021/07/11 04:35:03;;;;;;;26.47;12.27;;;17.30;94.90;;;;;;5011323;28;20433;-75
2021/07/11 04:37:29;;;;;;;18.73;13.70;;;17.20;94.80;;;;;;5010887;28;20927;-75
2021/07/11 04:39:54;;;;;;;19.00;12.00;;;17.20;94.90;;;;;;5014425;28;20424;-76
2021/07/11 04:42:20;;;;;;;20.80;15.03;;;17.30;94.90;;;;;;5011104;28;20687;-76
2021/07/11 04:44:46;;;;;;;21.47;13.10;;;17.30;95.00;;;;;;4997970;28;20195;-76
2021/07/11 04:47:13;;;;;;;27.20;15.00;;;17.30;95.00;;;;;;4991374;28;20172;-75
2021/07/11 04:49:38;;;;;;;18.47;13.93;;;17.30;94.80;;;;;;4991420;28;20254;-76
2021/07/11 04:52:05;;;;;;;17.47;12.60;;;17.30;94.70;;;;;;4974027;28;20514;-76
2021/07/11 04:54:32;;;;;;;18.00;13.40;;;17.30;94.70;;;;;;4992283;28;20216;-75
2021/07/11 04:56:57;;;;;;;18.23;13.00;;;17.40;94.60;;;;;;4994585;28;20423;-76
2021/07/11 04:59:23;;;;;;;18.30;12.80;;;17.40;94.60;;;;;;4997059;28;20422;-75
2021/07/11 05:01:49;;;;;;;17.90;13.73;;;17.40;94.50;;;;;;4993437;28;20167;-75
2021/07/11 05:04:14;;;;;;;19.67;13.33;;;17.40;94.50;;;;;;4977930;28;20207;-76
2021/07/11 05:06:40;;;;;;;16.60;12.53;;;17.40;94.40;;;;;;4995382;28;20242;-76
2021/07/11 05:09:07;;;;;;;22.80;13.40;;;17.40;94.40;;;;;;4995294;28;20160;-75
2021/07/11 05:11:33;;;;;;;18.43;12.80;;;17.40;94.40;;;;;;4994990;28;20258;-75
2021/07/11 05:13:59;;;;;;;21.20;13.47;;;17.50;94.40;;;;;;5012964;28;20472;-76
2021/07/11 05:16:24;;;;;;;17.90;12.27;;;17.50;94.40;;;;;;4997640;28;20837;-76
2021/07/11 05:18:50;;;;;;;19.00;13.47;;;17.50;94.30;;;;;;5015075;28;20838;-75
2021/07/11 05:21:15;;;;;;;21.33;13.70;;;17.50;94.20;;;;;;5006113;28;20172;-75
2021/07/11 05:23:41;;;;;;;20.43;13.40;;;17.60;94.20;;;;;;4996318;28;20286;-76
2021/07/11 05:26:07;;;;;;;19.73;13.03;;;17.60;94.00;;;;;;4979961;28;20168;-75
2021/07/11 05:28:33;;;;;;;18.53;11.67;;;17.60;94.00;;;;;;4996035;28;20168;-76
2021/07/11 05:30:59;;;;;;;18.60;13.27;;;17.60;94.00;;;;;;4994592;28;20410;-76
2021/07/11 05:33:25;;;;;;;22.27;13.70;;;17.70;94.00;;;;;;4994011;28;20262;-74
2021/07/11 05:35:51;;;;;;;23.80;14.60;;;17.70;93.90;;;;;;4995210;28;20688;-75
2021/07/11 05:38:16;;;;;;;18.40;14.30;;;17.70;93.80;;;;;;4995917;28;20162;-76
2021/07/11 05:40:42;;;;;;;20.40;12.87;;;17.80;93.60;;;;;;4962442;28;20556;-75
2021/07/11 05:43:08;;;;;;;23.20;15.10;;;17.80;93.30;;;;;;4977913;28;20458;-75
2021/07/11 05:45:34;;;;;;;18.60;13.30;;;17.90;93.50;;;;;;4962636;28;20691;-78
2021/07/11 05:48:00;;;;;;;20.77;14.53;;;17.90;93.20;;;;;;4995457;28;20164;-76
2021/07/11 05:50:26;;;;;;;23.40;13.83;;;18.00;93.20;;;;;;4996394;28;20529;-76
2021/07/11 05:52:51;;;;;;;21.93;15.23;;;18.00;93.20;;;;;;5008425;28;20434;-77
2021/07/11 05:55:17;;;;;;;19.23;13.80;;;17.90;93.20;;;;;;5014870;28;20171;-74
2021/07/11 05:57:43;;;;;;;24.03;14.83;;;17.90;93.00;;;;;;4994938;28;20184;-77
2021/07/11 06:00:11;;;;;;;25.90;15.90;;;17.90;93.20;;;;;;5014656;28;20171;-75
2021/07/11 06:02:41;;;;;;;19.20;13.50;;;17.90;93.30;;;;;;5015317;28;20589;-77
2021/07/11 06:05:07;;;;;;;18.87;13.57;;;17.90;93.20;;;;;;5014422;28;20422;-76
2021/07/11 06:07:32;;;;;;;22.27;13.90;;;18.00;93.20;;;;;;4999018;28;20173;-76
2021/07/11 06:09:59;;;;;;;17.37;13.47;;;18.00;93.10;;;;;;5010833;28;20780;-74
2021/07/11 06:12:25;;;;;;;19.73;13.90;;;18.10;92.90;;;;;;4985368;28;20176;-76
2021/07/11 06:14:52;;;;;;;21.00;13.37;;;18.10;92.80;;;;;;4994751;28;20529;-77
2021/07/11 06:17:18;;;;;;;21.30;12.80;;;18.10;92.90;;;;;;4979705;28;20980;-78
2021/07/11 06:19:44;;;;;;;20.20;13.50;;;18.10;92.50;;;;;;5003094;28;20932;-76
2021/07/11 06:22:09;;;;;;;21.23;13.87;;;17.90;92.20;;;;;;4980459;28;20415;-76
2021/07/11 06:24:35;;;;;;;20.87;12.37;;;17.90;92.60;;;;;;4978396;28;20205;-76
2021/07/11 06:27:01;;;;;;;21.60;13.07;;;17.90;92.30;;;;;;4996133;28;20187;-74
2021/07/11 06:29:27;;;;;;;18.33;12.43;;;17.90;92.60;;;;;;4997199;28;20187;-77
2021/07/11 06:31:52;;;;;;;18.23;13.60;;;17.90;92.70;;;;;;4979116;28;20187;-75
2021/07/11 06:34:21;;;;;;;18.43;13.10;;;18.00;92.80;;;;;;4977102;28;20306;-75
2021/07/11 06:36:47;;;;;;;18.77;12.83;;;18.00;92.60;;;;;;4995898;28;20267;-74
2021/07/11 06:39:13;;;;;;;18.37;11.87;;;18.00;92.40;;;;;;4962118;28;20438;-77
2021/07/11 06:41:39;;;;;;;19.63;13.00;;;18.00;92.30;;;;;;4995926;28;20196;-77
2021/07/11 06:44:05;;;;;;;17.47;12.33;;;18.00;92.50;;;;;;4971257;28;20853;-75
2021/07/11 06:46:30;;;;;;;19.60;12.57;;;18.00;92.50;;;;;;4989982;28;20944;-75
2021/07/11 06:48:56;;;;;;;25.50;13.13;;;18.00;92.50;;;;;;5013642;28;20492;-75
2021/07/11 06:51:22;;;;;;;16.53;12.63;;;18.00;92.50;;;;;;5005401;28;20172;-77
2021/07/11 06:53:47;;;;;;;17.37;12.03;;;17.90;92.60;;;;;;4993810;28;20204;-75
2021/07/11 06:56:13;;;;;;;18.93;12.47;;;18.00;92.60;;;;;;4992034;28;20254;-75
2021/07/11 06:58:39;;;;;;;19.00;12.13;;;17.90;92.60;;;;;;4968316;28;20209;-75
2021/07/11 07:01:04;;;;;;;18.40;12.37;;;17.90;92.60;;;;;;4981339;28;20172;-77
2021/07/11 07:03:30;;;;;;;16.30;11.93;;;18.00;92.70;;;;;;5005494;23;20217;-85
2021/07/11 07:05:56;;;;;;;24.13;16.00;;;17.90;92.60;;;;;;5012000;28;20246;-87
2021/07/11 07:08:25;;;;;;;29.13;20.73;;;17.90;92.50;;;;;;5023916;28;20661;-84
2021/07/11 07:10:51;;;;;;;19.07;12.03;;;17.90;92.40;;;;;;5004515;28;20410;-85
2021/07/11 07:13:17;;;;;;;14.13;11.80;;;17.90;92.40;;;;;;5003203;28;20414;-85
2021/07/11 07:15:46;;;;;;;21.23;12.53;;;18.00;92.40;;;;;;4985079;28;20419;-86
2021/07/11 07:18:15;;;;;;;17.53;12.70;;;17.90;92.40;;;;;;4988040;28;20164;-85
2021/07/11 07:20:41;;;;;;;14.73;11.10;;;18.00;92.90;;;;;;5014906;28;20438;-85
2021/07/11 07:23:07;;;;;;;17.50;12.13;;;18.00;92.40;;;;;;5000247;28;20514;-87
2021/07/11 07:25:33;;;;;;;13.57;11.47;;;18.00;92.50;;;;;;5013145;28;20445;-86
2021/07/11 07:27:59;;;;;;;14.00;11.47;;;18.00;92.60;;;;;;5031979;28;20240;-85
2021/07/11 07:30:25;;;;;;;16.27;12.00;;;18.00;92.50;;;;;;5001373;28;20420;-87
2021/07/11 07:32:50;;;;;;;15.37;12.00;;;18.10;92.50;;;;;;5018979;28;20199;-85
2021/07/11 07:35:18;;;;;;;14.13;10.40;;;18.10;92.40;;;;;;5005092;28;20426;-84
2021/07/11 07:37:46;;;;;;;13.37;10.60;;;18.20;92.40;;;;;;4968467;28;20666;-82
2021/07/11 07:40:13;;;;;;;18.33;12.23;;;18.30;92.10;;;;;;5004889;28;20446;-84
2021/07/11 07:42:39;;;;;;;18.20;13.03;;;18.40;92.00;;;;;;4990373;28;20902;-83
2021/07/11 07:45:05;;;;;;;14.00;11.50;;;18.50;91.70;;;;;;5003017;28;20449;-85
2021/07/11 07:47:31;;;;;;;13.57;10.97;;;18.60;91.20;;;;;;5016935;28;20192;-84
2021/07/11 07:49:58;;;;;;;13.30;10.10;;;18.60;91.20;;;;;;5026747;28;20426;-81
2021/07/11 07:52:23;;;;;;;18.73;11.27;;;18.60;90.80;;;;;;5013061;28;20183;-83
2021/07/11 07:54:49;;;;;;;19.00;12.13;;;18.60;90.80;;;;;;5012536;28;20411;-85
2021/07/11 07:57:17;;;;;;;14.57;11.00;;;18.60;90.80;;;;;;5006480;28;20197;-84
2021/07/11 07:59:43;;;;;;;15.70;11.40;;;18.60;90.90;;;;;;5001583;28;20168;-85
2021/07/11 08:02:09;;;;;;;13.90;11.27;;;18.60;91.20;;;;;;5020215;28;20410;-85
2021/07/11 08:04:35;;;;;;;17.47;11.97;;;18.60;91.00;;;;;;4982180;28;21007;-85
2021/07/11 08:07:01;;;;;;;18.33;11.27;;;18.50;91.00;;;;;;4981224;28;20220;-81
2021/07/11 08:09:26;;;;;;;20.50;12.37;;;18.50;90.90;;;;;;4997317;28;20450;-82
2021/07/11 08:11:52;;;;;;;16.90;12.17;;;18.40;90.90;;;;;;4996832;28;20164;-80
2021/07/11 08:14:18;;;;;;;14.70;11.10;;;18.40;91.10;;;;;;4997772;28;20240;-83
2021/07/11 08:16:43;;;;;;;19.77;12.00;;;18.40;91.10;;;;;;4998487;28;20216;-83
2021/07/11 08:19:10;;;;;;;17.57;12.60;;;18.30;91.20;;;;;;5002941;28;20187;-82
2021/07/11 08:21:35;;;;;;;21.20;13.40;;;18.20;91.10;;;;;;4985977;28;20179;-83
2021/07/11 08:24:02;;;;;;;27.33;14.00;;;18.20;91.10;;;;;;4996585;28;20730;-83
2021/07/11 08:26:28;;;;;;;18.93;12.80;;;18.20;91.10;;;;;;5010950;28;20215;-85
2021/07/11 08:28:53;;;;;;;25.10;13.67;;;18.20;90.70;;;;;;5021548;28;20503;-82
2021/07/11 08:31:19;;;;;;;16.70;12.33;;;18.10;90.70;;;;;;5011747;28;20896;-80
2021/07/11 08:33:45;;;;;;;17.30;12.63;;;18.10;90.60;;;;;;5009958;28;20179;-84
2021/07/11 08:36:11;;;;;;;20.93;14.97;;;18.10;90.50;;;;;;4999586;28;20442;-83
2021/07/11 08:38:37;;;;;;;18.63;13.40;;;18.20;90.80;;;;;;5000349;28;20199;-84
2021/07/11 08:41:02;;;;;;;17.37;13.27;;;18.30;90.60;;;;;;5004514;28;20184;-82
2021/07/11 08:43:29;;;;;;;18.43;13.37;;;18.40;90.20;;;;;;5011305;28;20200;-83
2021/07/11 08:45:55;;;;;;;17.13;13.00;;;18.50;90.20;;;;;;5011795;28;20177;-81
2021/07/11 08:48:20;;;;;;;17.50;12.00;;;18.70;89.90;;;;;;5012753;28;20412;-81
2021/07/11 08:50:46;;;;;;;19.60;11.57;;;18.90;88.80;;;;;;5014031;28;20169;-83
2021/07/11 08:53:14;;;;;;;16.60;11.00;;;19.20;88.30;;;;;;5009557;28;20258;-83
2021/07/11 08:55:41;;;;;;;14.73;10.03;;;19.40;86.40;;;;;;5006322;28;20266;-84
2021/07/11 08:58:07;;;;;;;14.00;10.80;;;19.70;84.60;;;;;;5021779;28;20424;-83
2021/07/11 09:00:35;;;;;;;13.50;10.57;;;19.90;83.00;;;;;;5010070;28;20461;-81
2021/07/11 09:03:02;;;;;;;11.40;9.33;;;20.20;82.70;;;;;;5023814;28;20188;-84
2021/07/11 09:05:32;;;;;;;12.90;10.20;;;20.60;81.00;;;;;;5019236;28;20426;-82
2021/07/11 09:08:13;;;;;;;12.50;9.00;;;20.80;78.50;;;;;;4982849;28;20432;-81
2021/07/11 09:10:50;;;;;;;16.17;10.27;;;21.00;77.60;;;;;;5008742;28;20475;-84
2021/07/11 09:13:18;;;;;;;14.30;9.30;;;21.10;76.40;;;;;;5009483;28;20477;-84
2021/07/11 09:15:47;;;;;;;17.80;10.90;;;21.10;76.70;;;;;;5016986;28;20923;-81
2021/07/11 09:18:23;;;;;;;14.13;10.30;;;21.10;75.60;;;;;;5001455;28;20410;-84
2021/07/11 09:21:02;;;;;;;14.57;10.97;;;21.10;74.40;;;;;;5019539;28;20954;-83
2021/07/11 09:23:31;;;;;;;15.17;11.23;;;21.20;74.60;;;;;;5020148;28;20475;-83
2021/07/11 09:25:58;;;;;;;14.80;11.53;;;21.40;74.40;;;;;;5019027;28;20461;-83
2021/07/11 09:28:24;;;;;;;16.70;11.60;;;21.60;73.10;;;;;;5001828;28;20426;-83
2021/07/11 09:31:11;;;;;;;17.50;12.17;;;21.60;72.50;;;;;;5002045;28;20425;-82
2021/07/11 09:33:41;;;;;;;15.50;12.50;;;21.70;70.80;;;;;;5014931;28;20198;-82
2021/07/11 09:36:09;;;;;;;15.60;12.47;;;21.70;70.40;;;;;;5001163;28;20430;-85
2021/07/11 09:38:35;;;;;;;16.73;10.67;;;21.80;69.70;;;;;;5001960;28;20415;-85
2021/07/11 09:41:20;;;;;;;14.57;11.13;;;22.00;69.50;;;;;;5000395;28;20430;-85
2021/07/11 09:43:46;;;;;;;14.63;10.57;;;22.20;68.80;;;;;;4999051;28;20465;-83
2021/07/11 09:46:13;;;;;;;17.60;11.57;;;22.50;67.80;;;;;;4999731;28;20991;-84
2021/07/11 09:48:39;;;;;;;18.57;12.00;;;22.80;66.70;;;;;;5012900;28;20841;-83
2021/07/11 09:51:13;;;;;;;16.87;11.07;;;23.20;64.80;;;;;;4987895;28;20461;-83
2021/07/11 09:53:38;;;;;;;16.60;10.77;;;23.70;63.10;;;;;;4973809;28;20430;-81
2021/07/11 09:56:04;;;;;;;16.00;11.00;;;24.40;61.10;;;;;;5005359;28;20480;-84
2021/07/11 09:58:32;;;;;;;12.60;10.07;;;24.90;59.20;;;;;;5001962;28;20167;-83
2021/07/11 10:00:58;;;;;;;10.17;8.90;;;25.20;58.10;;;;;;5007868;28;20167;-83
2021/07/11 10:03:23;;;;;;;11.60;9.63;;;25.10;57.10;;;;;;5000612;28;20529;-83
2021/07/11 10:05:49;;;;;;;12.97;10.37;;;24.70;56.80;;;;;;5007239;28;20254;-83
2021/07/11 10:08:15;;;;;;;10.00;8.30;;;24.20;57.90;;;;;;5008813;28;20178;-83
2021/07/11 10:10:41;;;;;;;9.00;7.50;;;23.70;59.10;;;;;;4981777;28;20191;-82
2021/07/11 10:13:08;;;;;;;10.00;7.30;;;23.20;60.10;;;;;;5015387;28;20223;-84
2021/07/11 10:15:36;;;;;;;7.70;6.90;;;22.90;60.80;;;;;;5000501;28;20588;-82
2021/07/11 10:18:08;;;;;;;13.13;7.43;;;22.60;62.00;;;;;;5013676;28;20449;-83
2021/07/11 10:20:40;;;;;;;10.10;8.47;;;22.50;63.60;;;;;;5008869;28;20423;-84
2021/07/11 10:23:08;;;;;;;9.90;7.37;;;22.40;64.10;;;;;;5007451;28;20468;-84
2021/07/11 10:25:35;;;;;;;11.33;8.37;;;22.60;64.80;;;;;;4983936;28;20454;-84
2021/07/11 10:28:08;;;;;;;12.03;9.10;;;22.80;63.20;;;;;;5000745;28;20506;-82
2021/07/11 10:30:38;;;;;;;10.10;8.10;;;23.30;62.20;;;;;;5018268;28;20489;-83
2021/07/11 10:33:14;;;;;;;9.90;8.07;;;23.50;60.70;;;;;;5019705;28;20444;-84
2021/07/11 10:35:54;;;;;;;8.60;7.70;;;23.80;60.10;;;;;;5018760;28;20425;-83
2021/07/11 10:38:34;;;;;;;8.17;5.80;;;24.10;59.20;;;;;;5017885;28;20426;-82
2021/07/11 10:41:17;;;;;;;9.20;7.33;;;24.50;57.50;;;;;;4985314;28;20414;-83
2021/07/11 10:43:46;;;;;;;9.47;7.30;;;25.10;56.60;;;;;;5022704;28;20450;-86
2021/07/11 10:46:13;;;;;;;7.33;6.27;;;25.50;55.30;;;;;;5020593;28;20492;-84
2021/07/11 10:48:38;;;;;;;7.70;6.60;;;25.70;54.20;;;;;;5015524;28;20441;-84
2021/07/11 10:51:05;;;;;;;8.07;6.80;;;25.60;54.40;;;;;;5002400;28;20418;-83
2021/07/11 10:53:36;;;;;;;10.07;7.10;;;25.20;55.40;;;;;;5004190;28;20186;-84
2021/07/11 10:56:04;;;;;;;8.90;7.30;;;24.70;55.80;;;;;;4981419;28;20462;-84
2021/07/11 10:58:45;;;;;;;8.57;7.07;;;24.30;57.10;;;;;;4992199;28;20426;-83
2021/07/11 11:01:16;;;;;;;7.73;6.17;;;24.00;57.70;;;;;;5003229;28;20780;-83
2021/07/11 11:03:49;;;;;;;6.20;5.60;;;23.70;58.40;;;;;;5004533;28;20496;-84
2021/07/11 11:06:18;;;;;;;13.33;5.43;;;23.50;58.60;;;;;;5001145;28;20477;-82
2021/07/11 11:08:47;;;;;;;6.30;5.13;;;23.40;58.90;;;;;;5020108;28;20490;-86
2021/07/11 11:11:14;;;;;;;6.23;4.60;;;23.30;59.20;;;;;;4986799;28;20508;-83
2021/07/11 11:13:40;;;;;;;5.53;4.43;;;23.20;59.00;;;;;;5020398;28;20422;-83
2021/07/11 11:16:18;;;;;;;5.53;4.73;;;23.10;58.40;;;;;;5007948;28;20461;-83
2021/07/11 11:18:50;;;;;;;14.10;6.37;;;23.10;58.90;;;;;;5015705;28;20174;-84
2021/07/11 11:21:18;;;;;;;6.27;4.67;;;23.10;59.40;;;;;;5017008;28;20437;-84
2021/07/11 11:23:46;;;;;;;4.83;4.37;;;23.10;59.40;;;;;;5018619;28;20485;-83
2021/07/11 11:26:22;;;;;;;4.10;3.70;;;23.20;59.40;;;;;;5019658;28;20434;-82
2021/07/11 11:28:51;;;;;;;6.10;4.70;;;23.30;59.50;;;;;;5018196;28;20433;-83
2021/07/11 11:31:25;;;;;;;7.23;4.27;;;23.40;59.50;;;;;;5000561;28;20478;-84
2021/07/11 11:33:59;;;;;;;7.00;4.50;;;23.50;59.00;;;;;;4993653;28;20441;-83
2021/07/11 11:36:29;;;;;;;5.90;4.10;;;23.50;59.00;;;;;;4989981;28;20470;-84
2021/07/11 11:38:58;;;;;;;6.53;4.43;;;23.60;58.90;;;;;;5018973;28;20418;-83
2021/07/11 11:41:24;;;;;;;3.90;3.20;;;23.70;58.80;;;;;;4985228;28;20436;-83
2021/07/11 11:43:51;;;;;;;4.53;3.90;;;23.90;58.10;;;;;;5001612;28;20465;-83
2021/07/11 11:46:24;;;;;;;8.27;3.77;;;24.10;57.80;;;;;;5000247;28;20452;-84
2021/07/11 11:49:04;;;;;;;4.53;3.20;;;24.40;57.60;;;;;;4999835;28;20515;-82
2021/07/11 11:51:30;;;;;;;5.70;3.53;;;24.60;56.60;;;;;;4983667;28;20417;-83
2021/07/11 11:53:56;;;;;;;3.53;3.20;;;24.70;55.70;;;;;;4969230;28;20422;-81
2021/07/11 11:56:23;;;;;;;5.13;3.27;;;24.80;55.00;;;;;;4999501;28;20437;-82
2021/07/11 11:58:57;;;;;;;3.30;3.00;;;25.00;54.90;;;;;;4965404;28;20190;-84
2021/07/11 12:01:29;;;;;;;4.17;3.50;;;25.00;55.10;;;;;;4980572;28;20457;-83
2021/07/11 12:04:05;;;;;;;3.90;3.47;;;25.00;54.80;;;;;;4980379;28;21028;-83
2021/07/11 12:06:31;;;;;;;4.27;2.90;;;24.90;55.00;;;;;;5002815;28;20422;-81
2021/07/11 12:08:57;;;;;;;3.67;3.33;;;24.70;55.40;;;;;;4990644;28;20514;-83
2021/07/11 12:11:23;;;;;;;3.50;2.97;;;24.60;55.90;;;;;;5007341;28;20198;-83
2021/07/11 12:13:49;;;;;;;4.07;2.90;;;24.40;55.70;;;;;;5002412;28;20426;-82
2021/07/11 12:16:18;;;;;;;3.87;3.57;;;24.30;55.30;;;;;;4986157;28;20199;-84
2021/07/11 12:18:51;;;;;;;2.70;2.50;;;24.10;55.40;;;;;;4991847;28;20171;-81
2021/07/11 12:21:26;;;;;;;4.10;2.80;;;24.10;55.20;;;;;;4983776;28;20438;-82
2021/07/11 12:24:04;;;;;;;2.73;1.80;;;24.30;54.70;;;;;;4994451;28;20457;-82
2021/07/11 12:26:35;;;;;;;3.40;2.50;;;24.50;53.80;;;;;;4991249;28;20450;-82
2021/07/11 12:29:05;;;;;;;4.53;2.73;;;24.80;53.70;;;;;;4988378;28;20422;-82
2021/07/11 12:31:31;;;;;;;3.80;2.60;;;24.90;52.90;;;;;;4970572;28;20422;-83
2021/07/11 12:34:00;;;;;;;3.40;2.40;;;25.00;52.70;;;;;;4989809;28;20430;-84
2021/07/11 12:36:26;;;;;;;3.60;3.27;;;24.90;52.50;;;;;;5023718;28;20429;-84
2021/07/11 12:38:53;;;;;;;3.83;3.43;;;24.80;53.00;;;;;;5024338;28;20420;-85